createdAt,value
2018-02-05T00:01:11.167Z,-4.00
2018-02-05T00:04:20.911Z,-4.10
2018-02-05T00:07:30.849Z,-4.00
2018-02-05T00:10:41.729Z,-4.10
2018-02-05T00:13:52.511Z,-4.20
2018-02-05T00:17:02.565Z,-4.20
2018-02-05T00:20:12.282Z,-4.30
2018-02-05T00:23:21.994Z,-4.30
2018-02-05T00:26:32.902Z,-4.40
2018-02-05T00:29:42.775Z,-4.40
2018-02-05T00:32:52.687Z,-4.50
2018-02-05T00:36:02.612Z,-4.50
2018-02-05T00:39:12.682Z,-4.60
2018-02-05T00:42:22.888Z,-4.60
2018-02-05T00:45:33.056Z,-4.60
2018-02-05T00:48:43.055Z,-4.70
2018-02-05T00:51:53.050Z,-4.80
2018-02-05T00:55:02.836Z,-4.80
2018-02-05T00:58:13.446Z,-4.90
2018-02-05T01:01:23.264Z,-5.00
2018-02-05T01:04:33.958Z,-5.00
2018-02-05T01:07:43.753Z,-5.10
2018-02-05T01:10:53.711Z,-5.20
2018-02-05T01:14:03.405Z,-5.40
2018-02-05T01:17:13.199Z,-5.20
2018-02-05T01:20:22.943Z,-5.20
2018-02-05T01:23:32.889Z,-5.10
2018-02-05T01:26:43.138Z,-5.00
2018-02-05T01:29:53.795Z,-4.80
2018-02-05T01:33:04.178Z,-4.90
2018-02-05T01:36:14.234Z,-4.80
2018-02-05T01:39:23.803Z,-4.80
2018-02-05T01:42:34.002Z,-4.80
2018-02-05T01:45:43.765Z,-4.80
2018-02-05T01:48:53.951Z,-4.80
2018-02-05T01:52:04.812Z,-4.90
2018-02-05T01:55:14.562Z,-5.00
2018-02-05T01:58:25.419Z,-5.00
2018-02-05T02:01:35.612Z,-5.00
2018-02-05T02:04:46.232Z,-5.00
2018-02-05T02:07:56.181Z,-5.20
2018-02-05T02:11:05.980Z,-5.30
2018-02-05T02:14:15.947Z,-5.40
2018-02-05T02:17:25.785Z,-5.40
2018-02-05T02:20:35.574Z,-5.50
2018-02-05T02:23:46.540Z,-5.80
2018-02-05T02:26:57.078Z,-5.80
2018-02-05T02:30:06.884Z,-5.70
2018-02-05T02:33:16.819Z,-5.70
2018-02-05T02:36:26.371Z,-5.70
2018-02-05T02:39:36.611Z,-5.70
2018-02-05T02:42:46.769Z,-5.80
2018-02-05T02:45:56.753Z,-5.80
2018-02-05T02:49:06.570Z,-5.90
2018-02-05T02:52:17.074Z,-6.00
2018-02-05T02:55:27.224Z,-6.00
2018-02-05T02:58:37.538Z,-6.10
2018-02-05T03:01:47.582Z,-6.00
2018-02-05T03:04:58.742Z,-6.20
2018-02-05T03:08:08.621Z,-6.20
2018-02-05T03:11:18.458Z,-6.10
2018-02-05T03:14:28.349Z,-6.00
2018-02-05T03:17:39.015Z,-6.00
2018-02-05T03:20:49.119Z,-5.90
2018-02-05T03:23:59.115Z,-5.80
2018-02-05T03:27:08.820Z,-5.70
2018-02-05T03:30:18.662Z,-5.80
2018-02-05T03:33:29.273Z,-6.00
2018-02-05T03:36:39.479Z,-6.10
2018-02-05T03:39:49.021Z,-6.00
2018-02-05T03:42:59.134Z,-5.90
2018-02-05T03:46:08.997Z,-5.70
2018-02-05T03:49:19.590Z,-5.50
2018-02-05T03:52:29.614Z,-5.50
2018-02-05T03:55:39.587Z,-5.50
2018-02-05T03:58:49.650Z,-5.50
2018-02-05T04:01:59.367Z,-5.40
2018-02-05T04:05:10.223Z,-5.30
2018-02-05T04:08:20.445Z,-5.30
2018-02-05T04:11:31.210Z,-5.20
2018-02-05T04:14:40.434Z,-5.20
2018-02-05T04:17:51.163Z,-5.20
2018-02-05T04:21:01.704Z,-5.10
2018-02-05T04:24:12.091Z,-5.10
2018-02-05T04:27:22.761Z,-5.10
2018-02-05T04:30:32.617Z,-5.10
2018-02-05T04:33:42.574Z,-5.00
2018-02-05T04:36:52.301Z,-5.10
2018-02-05T04:40:02.436Z,-5.00
2018-02-05T04:43:13.018Z,-5.10
2018-02-05T04:46:23.274Z,-5.10
2018-02-05T04:49:33.929Z,-5.00
2018-02-05T04:52:43.844Z,-5.10
2018-02-05T04:55:53.744Z,-5.00
2018-02-05T04:59:03.486Z,-4.90
2018-02-05T05:02:14.125Z,-4.90
2018-02-05T05:05:24.099Z,-4.90
2018-02-05T05:08:34.058Z,-4.90
2018-02-05T05:11:44.828Z,-5.10
2018-02-05T05:14:55.123Z,-5.10
2018-02-05T05:18:05.780Z,-5.20
2018-02-05T05:21:15.834Z,-5.10
2018-02-05T05:24:25.714Z,-5.20
2018-02-05T05:27:35.678Z,-5.00
2018-02-05T05:30:46.133Z,-4.80
2018-02-05T05:33:56.365Z,-4.90
2018-02-05T05:37:06.095Z,-4.80
2018-02-05T05:40:15.923Z,-4.80
2018-02-05T05:43:26.574Z,-4.80
2018-02-05T05:46:36.943Z,-4.80
2018-02-05T05:49:46.942Z,-4.70
2018-02-05T05:52:56.730Z,-4.70
2018-02-05T05:56:06.674Z,-4.60
2018-02-05T05:59:16.574Z,-4.60
2018-02-05T06:02:27.584Z,-4.50
2018-02-05T06:05:37.722Z,-4.50
2018-02-05T06:08:47.531Z,-4.60
2018-02-05T06:11:57.503Z,-4.70
2018-02-05T06:15:07.364Z,-4.70
2018-02-05T06:18:17.928Z,-4.60
2018-02-05T06:21:28.355Z,-4.70
2018-02-05T06:24:38.176Z,-4.60
2018-02-05T06:27:48.131Z,-4.60
2018-02-05T06:30:58.158Z,-4.50
2018-02-05T06:34:08.091Z,-4.50
2018-02-05T06:37:18.027Z,-4.50
2018-02-05T06:40:27.983Z,-4.40
2018-02-05T06:43:38.888Z,-4.40
2018-02-05T06:46:49.026Z,-4.40
2018-02-05T06:49:58.918Z,-4.30
2018-02-05T06:53:20.085Z,-4.40
2018-02-05T06:56:30.449Z,-4.50
2018-02-05T06:59:41.178Z,-4.50
2018-02-05T07:02:51.307Z,-4.50
2018-02-05T07:06:01.960Z,-4.40
2018-02-05T07:09:13.293Z,-4.40
2018-02-05T07:12:23.106Z,-4.50
2018-02-05T07:15:32.958Z,-4.40
2018-02-05T07:18:42.849Z,-4.30
2018-02-05T07:21:52.767Z,-4.20
2018-02-05T07:25:02.570Z,-4.20
2018-02-05T07:28:12.419Z,-4.20
2018-02-05T07:31:22.182Z,-4.10
2018-02-05T07:34:32.346Z,-4.00
2018-02-05T07:37:42.011Z,-4.00
2018-02-05T07:40:52.006Z,-4.00
2018-02-05T07:44:01.892Z,-4.00
2018-02-05T07:47:11.844Z,-3.90
2018-02-05T07:50:21.973Z,-3.90
2018-02-05T07:53:31.930Z,-3.80
2018-02-05T07:56:42.445Z,-3.80
2018-02-05T07:59:53.449Z,-3.70
2018-02-05T08:03:03.689Z,-3.70
2018-02-05T08:06:13.546Z,-3.70
2018-02-05T08:09:23.274Z,-3.60
2018-02-05T08:12:33.250Z,-3.70
2018-02-05T08:15:43.641Z,-3.60
2018-02-05T08:18:53.394Z,-3.60
2018-02-05T08:22:03.168Z,-3.50
2018-02-05T08:25:13.019Z,-3.50
2018-02-05T08:28:23.764Z,-3.50
2018-02-05T08:31:33.833Z,-3.50
2018-02-05T08:34:44.543Z,-3.40
2018-02-05T08:37:54.260Z,-3.40
2018-02-05T08:41:04.134Z,-3.30
2018-02-05T08:44:14.134Z,-3.20
2018-02-05T08:47:24.363Z,-3.10
2018-02-05T08:50:35.108Z,-3.00
2018-02-05T08:53:45.157Z,-3.00
2018-02-05T08:56:55.167Z,-2.90
2018-02-05T09:00:05.106Z,-2.90
2018-02-05T09:03:15.374Z,-2.80
2018-02-05T09:06:25.663Z,-2.80
2018-02-05T09:09:35.769Z,-2.80
2018-02-05T09:12:45.490Z,-2.70
2018-02-05T09:15:55.459Z,-2.70
2018-02-05T09:19:05.387Z,-2.60
2018-02-05T09:22:15.218Z,-2.60
2018-02-05T09:25:25.142Z,-2.50
2018-02-05T09:28:35.784Z,-2.50
2018-02-05T09:31:45.847Z,-2.50
2018-02-05T09:34:55.719Z,-2.40
2018-02-05T09:38:05.541Z,-2.40
2018-02-05T09:41:15.372Z,-2.30
2018-02-05T09:44:25.415Z,-2.20
2018-02-05T09:47:36.357Z,-2.20
2018-02-05T09:50:46.014Z,-2.20
2018-02-05T09:53:55.934Z,-2.10
2018-02-05T09:57:06.032Z,-2.00
2018-02-05T10:00:16.072Z,-2.00
2018-02-05T10:03:25.857Z,-2.00
2018-02-05T10:06:36.026Z,-2.00
2018-02-05T10:09:45.951Z,-2.00
2018-02-05T10:12:55.845Z,-1.90
2018-02-05T10:16:05.586Z,-1.90
2018-02-05T10:19:16.621Z,-1.80
2018-02-05T10:22:28.453Z,-1.80
2018-02-05T10:25:39.151Z,-1.70
2018-02-05T10:28:48.939Z,-1.60
2018-02-05T10:31:58.640Z,-1.60
2018-02-05T10:35:09.265Z,-1.60
2018-02-05T10:38:18.979Z,-1.60
2018-02-05T10:41:28.744Z,-1.60
2018-02-05T10:44:38.848Z,-1.60
2018-02-05T10:47:49.533Z,-1.60
2018-02-05T10:50:59.763Z,-1.60
2018-02-05T10:54:09.539Z,-1.60
2018-02-05T10:57:19.333Z,-1.40
2018-02-05T11:00:29.318Z,-1.50
2018-02-05T11:03:40.031Z,-1.50
2018-02-05T11:06:50.285Z,-1.50
2018-02-05T11:10:00.774Z,-1.40
2018-02-05T11:13:10.588Z,-1.40
2018-02-05T11:16:20.470Z,-1.40
2018-02-05T11:19:30.969Z,-1.10
2018-02-05T11:22:40.882Z,-1.20
2018-02-05T11:25:50.745Z,-1.10
2018-02-05T11:29:00.498Z,-1.10
2018-02-05T11:32:11.174Z,-1.10
2018-02-05T11:35:20.963Z,-1.10
2018-02-05T11:38:30.725Z,-1.10
2018-02-05T11:41:41.282Z,-1.00
2018-02-05T11:44:51.579Z,-1.00
2018-02-05T11:48:01.310Z,-1.00
2018-02-05T11:51:11.467Z,-0.90
2018-02-05T11:54:21.201Z,-1.00
2018-02-05T11:57:31.077Z,-1.00
2018-02-05T12:00:41.043Z,-1.00
2018-02-05T12:03:50.769Z,-1.00
2018-02-05T12:07:00.545Z,-1.00
2018-02-05T12:10:10.516Z,-1.00
2018-02-05T12:13:21.072Z,-1.10
2018-02-05T12:16:31.467Z,-1.10
2018-02-05T12:19:41.482Z,-1.10
2018-02-05T12:22:51.626Z,-1.20
2018-02-05T12:26:01.673Z,-1.20
2018-02-05T12:29:11.678Z,-1.30
2018-02-05T12:32:21.608Z,-1.20
2018-02-05T12:35:32.259Z,-1.10
2018-02-05T12:38:42.669Z,-1.10
2018-02-05T12:41:54.630Z,-1.10
2018-02-05T12:45:05.383Z,-1.10
2018-02-05T12:48:15.382Z,-1.10
2018-02-05T12:51:25.415Z,-1.10
2018-02-05T12:54:34.939Z,-1.10
2018-02-05T12:57:44.758Z,-1.10
2018-02-05T13:04:48.500Z,-0.80
2018-02-05T13:07:58.409Z,-0.80
2018-02-05T13:11:08.116Z,-0.80
2018-02-05T13:14:17.911Z,-0.80
2018-02-05T13:17:27.857Z,-0.80
2018-02-05T13:20:37.886Z,-0.80
2018-02-05T13:23:47.775Z,-0.80
2018-02-05T13:26:57.536Z,-0.80
2018-02-05T13:30:07.598Z,-0.80
2018-02-05T13:33:18.055Z,-0.80
2018-02-05T13:36:27.959Z,-0.80
2018-02-05T13:39:38.477Z,-0.80
2018-02-05T13:42:48.973Z,-0.80
2018-02-05T13:45:59.282Z,-0.80
2018-02-05T13:49:09.605Z,-0.80
2018-02-05T13:52:20.202Z,-0.80
2018-02-05T13:55:31.426Z,-0.80
2018-02-05T13:58:42.865Z,-0.80
2018-02-05T14:01:53.257Z,-0.80
2018-02-05T14:05:03.597Z,-0.80
2018-02-05T14:08:13.755Z,-0.70
2018-02-05T14:11:24.266Z,-0.70
2018-02-05T14:14:35.328Z,-0.90
2018-02-05T14:17:46.764Z,-1.00
2018-02-05T14:20:57.136Z,-1.10
2018-02-05T14:24:07.216Z,-1.10
2018-02-05T14:27:18.396Z,-1.10
2018-02-05T14:30:28.391Z,-1.10
2018-02-05T14:33:38.363Z,-1.10
2018-02-05T14:36:49.166Z,-1.20
2018-02-05T14:39:58.908Z,-1.10
2018-02-05T14:43:08.995Z,-1.10
2018-02-05T14:46:18.734Z,-1.10
2018-02-05T14:49:28.700Z,-1.20
2018-02-05T14:52:38.408Z,-1.10
2018-02-05T14:55:48.389Z,-1.20
2018-02-05T14:58:58.158Z,-1.30
2018-02-05T15:02:07.856Z,-1.30
2018-02-05T15:05:17.745Z,-1.30
2018-02-05T15:08:27.718Z,-1.30
2018-02-05T15:11:38.554Z,-1.30
2018-02-05T15:14:48.668Z,-1.30
2018-02-05T15:17:58.472Z,-1.40
2018-02-05T15:21:08.701Z,-1.30
2018-02-05T15:24:18.686Z,-1.40
2018-02-05T15:27:28.570Z,-1.50
2018-02-05T15:30:38.430Z,-1.50
2018-02-05T15:33:48.158Z,-1.60
2018-02-05T15:36:58.008Z,-1.60
2018-02-05T15:40:07.867Z,-1.60
2018-02-05T15:43:17.870Z,-1.70
2018-02-05T15:46:30.615Z,-1.70
2018-02-05T15:49:42.023Z,-1.70
2018-02-05T15:52:52.590Z,-1.60
2018-02-05T15:56:03.246Z,-1.70
2018-02-05T15:59:13.384Z,-1.70
2018-02-05T16:02:23.981Z,-1.80
2018-02-05T16:05:34.326Z,-1.80
2018-02-05T16:08:44.766Z,-1.80
2018-02-05T16:11:55.339Z,-1.80
2018-02-05T16:15:05.126Z,-1.80
2018-02-05T16:18:15.075Z,-1.80
2018-02-05T16:21:25.900Z,-1.80
2018-02-05T16:24:36.190Z,-1.80
2018-02-05T16:27:46.294Z,-1.80
2018-02-05T16:30:56.544Z,-1.80
2018-02-05T16:34:06.598Z,-1.80
2018-02-05T16:37:17.424Z,-2.00
2018-02-05T16:40:27.867Z,-2.00
2018-02-05T16:43:37.798Z,-2.00
2018-02-05T16:46:48.546Z,-2.10
2018-02-05T16:49:59.175Z,-2.10
2018-02-05T16:53:08.976Z,-2.20
2018-02-05T16:56:19.035Z,-2.10
2018-02-05T16:59:28.721Z,-2.10
2018-02-05T17:02:39.076Z,-2.20
2018-02-05T17:05:49.068Z,-2.10
2018-02-05T17:08:58.811Z,-2.20
2018-02-05T17:12:08.616Z,-2.30
2018-02-05T17:15:18.721Z,-2.30
2018-02-05T17:18:28.581Z,-2.30
2018-02-05T17:21:39.113Z,-2.30
2018-02-05T17:24:49.347Z,-2.40
2018-02-05T17:28:00.158Z,-2.50
2018-02-05T17:31:10.295Z,-2.50
2018-02-05T17:34:20.327Z,-2.40
2018-02-05T17:37:31.781Z,-2.50
2018-02-05T17:40:42.519Z,-2.40
2018-02-05T17:43:52.928Z,-2.50
2018-02-05T17:47:03.178Z,-2.50
2018-02-05T17:50:14.090Z,-2.50
2018-02-05T17:53:24.311Z,-2.50
2018-02-05T17:56:34.301Z,-2.60
2018-02-05T17:59:44.357Z,-2.60
2018-02-05T18:02:54.511Z,-2.60
2018-02-05T18:06:04.353Z,-2.60
2018-02-05T18:09:14.453Z,-2.60
2018-02-05T18:12:24.312Z,-2.70
2018-02-05T18:15:34.359Z,-2.70
2018-02-05T18:18:44.517Z,-2.70
2018-02-05T18:21:54.332Z,-2.70
2018-02-05T18:25:04.535Z,-2.70
2018-02-05T18:28:15.005Z,-2.70
2018-02-05T18:31:24.918Z,-2.70
2018-02-05T18:34:35.120Z,-2.80
2018-02-05T18:37:45.152Z,-2.80
2018-02-05T18:40:56.191Z,-2.80
2018-02-05T18:44:06.680Z,-2.80
2018-02-05T18:47:16.731Z,-2.80
2018-02-05T18:50:26.893Z,-2.80
2018-02-05T18:53:37.030Z,-2.80
2018-02-05T18:56:47.208Z,-2.80
2018-02-05T18:59:56.605Z,-2.80
2018-02-05T19:03:07.253Z,-2.70
2018-02-05T19:06:16.974Z,-2.70
2018-02-05T19:09:27.207Z,-2.80
2018-02-05T19:12:37.065Z,-2.70
2018-02-05T19:15:46.794Z,-2.80
2018-02-05T19:18:56.757Z,-2.80
2018-02-05T19:25:18.690Z,-3.10
2018-02-05T19:28:28.841Z,-3.00
2018-02-05T19:31:39.851Z,-3.10
2018-02-05T19:34:49.813Z,-3.10
2018-02-05T19:37:59.577Z,-3.30
2018-02-05T19:41:09.603Z,-3.40
2018-02-05T19:44:19.488Z,-3.40
2018-02-05T19:47:29.365Z,-3.60
2018-02-05T19:50:40.086Z,-3.70
2018-02-05T19:53:50.563Z,-3.70
2018-02-05T19:57:00.815Z,-3.70
2018-02-05T20:00:10.837Z,-3.70
2018-02-05T20:03:22.085Z,-4.00
2018-02-05T20:06:32.413Z,-4.10
2018-02-05T20:09:43.088Z,-4.10
2018-02-05T20:12:53.248Z,-4.10
2018-02-05T20:16:03.273Z,-4.10
2018-02-05T20:19:14.144Z,-4.10
2018-02-05T20:22:24.163Z,-4.10
2018-02-05T20:25:34.111Z,-4.00
2018-02-05T20:28:44.243Z,-4.10
2018-02-05T20:31:54.733Z,-4.20
2018-02-05T20:35:05.091Z,-4.20
2018-02-05T20:38:15.103Z,-4.40
2018-02-05T20:41:25.091Z,-4.40
2018-02-05T20:44:34.783Z,-4.60
2018-02-05T20:47:45.307Z,-4.60
2018-02-05T20:50:55.793Z,-4.80
2018-02-05T20:54:06.094Z,-4.90
2018-02-05T20:57:16.051Z,-4.90
2018-02-05T21:00:26.268Z,-4.80
2018-02-05T21:03:36.271Z,-4.70
2018-02-05T21:06:46.408Z,-4.70
2018-02-05T21:09:56.432Z,-4.70
2018-02-05T21:13:06.464Z,-4.70
2018-02-05T21:16:17.163Z,-4.80
2018-02-05T21:19:27.395Z,-4.80
2018-02-05T21:22:37.531Z,-4.70
2018-02-05T21:25:47.102Z,-4.80
2018-02-05T21:28:57.076Z,-4.90
2018-02-05T21:32:07.251Z,-4.90
2018-02-05T21:35:17.205Z,-5.20
2018-02-05T21:38:27.861Z,-5.30
2018-02-05T21:41:37.803Z,-5.20
2018-02-05T21:44:47.777Z,-5.30
2018-02-05T21:47:58.524Z,-5.30
2018-02-05T21:51:09.380Z,-5.30
2018-02-05T21:54:19.508Z,-5.30
2018-02-05T21:57:29.623Z,-5.20
2018-02-05T22:00:40.036Z,-5.20
2018-02-05T22:03:50.235Z,-5.30
2018-02-05T22:10:11.705Z,-5.70
2018-02-05T22:13:21.661Z,-5.60
2018-02-05T22:16:31.580Z,-5.70
2018-02-05T22:19:41.572Z,-5.90
2018-02-05T22:22:52.282Z,-6.10
2018-02-05T22:26:02.100Z,-6.10
2018-02-05T22:29:11.981Z,-6.10
2018-02-05T22:32:21.987Z,-6.10
2018-02-05T22:35:32.038Z,-6.10
2018-02-05T22:38:42.093Z,-6.30
2018-02-05T22:41:52.006Z,-6.10
2018-02-05T22:45:02.076Z,-6.30
2018-02-05T22:48:11.946Z,-6.10
2018-02-05T22:51:21.853Z,-6.00
2018-02-05T22:54:31.710Z,-6.20
2018-02-05T22:57:42.041Z,-6.40
2018-02-05T23:00:51.936Z,-6.30
2018-02-05T23:04:02.581Z,-6.40
2018-02-05T23:07:12.331Z,-6.40
2018-02-05T23:10:22.991Z,-6.40
2018-02-05T23:13:33.359Z,-6.30
2018-02-05T23:16:43.206Z,-6.30
2018-02-05T23:19:53.443Z,-6.30
2018-02-05T23:23:03.534Z,-6.40
2018-02-05T23:26:13.579Z,-6.70
2018-02-05T23:29:23.788Z,-6.70
2018-02-05T23:32:33.597Z,-6.70
2018-02-05T23:35:43.565Z,-6.70
2018-02-05T23:38:53.666Z,-6.80
2018-02-05T23:42:03.505Z,-6.70
2018-02-05T23:45:13.831Z,-6.70
2018-02-05T23:48:23.573Z,-6.80
2018-02-05T23:51:34.679Z,-6.90
2018-02-05T23:54:44.831Z,-6.90
2018-02-05T23:57:55.028Z,-7.00
